Time;durP1;ratioP1;P1;durP2;ratioP2;P2;SDS_P1;SDS_P2;PMS_P1;PMS_P2;Temp;Humidity;BMP_temperature;BMP_pressure;BME280_temperature;BME280_humidity;BME280_pressure;Samples;Min_cycle;Max_cycle;Signal;HPM_P1;HPM_P2
2023/11/14 00:00:12;;;;;;;9.30;5.20;;;;;;;4.75;74.53;99468.50;6114489;23;20006;-93
2023/11/14 00:02:37;;;;;;;8.70;5.55;;;;;;;4.71;74.32;99459.34;6115418;23;20059;-95
2023/11/14 00:05:03;;;;;;;11.80;6.65;;;;;;;4.73;74.90;99471.41;6138838;23;20452;-94
2023/11/14 00:07:38;;;;;;;11.90;6.15;;;;;;;4.82;74.85;99486.03;6139092;23;20012;-94
2023/11/14 00:10:04;;;;;;;10.90;6.68;;;;;;;4.73;75.24;99466.09;6118293;23;20013;-93
2023/11/14 00:12:30;;;;;;;10.40;5.45;;;;;;;4.76;74.88;99470.94;6115534;23;20001;-93
2023/11/14 00:14:55;;;;;;;12.52;6.88;;;;;;;4.85;75.40;99498.91;6113557;23;20087;-96
2023/11/14 00:17:23;;;;;;;9.48;6.00;;;;;;;4.80;75.43;99479.31;6139620;23;19993;-96
2023/11/14 00:19:49;;;;;;;11.30;6.22;;;;;;;4.86;75.53;99497.88;6114640;23;20000;-94
2023/11/14 00:22:15;;;;;;;11.65;6.80;;;;;;;4.89;75.60;99499.28;6115582;23;20451;-95
2023/11/14 00:24:40;;;;;;;10.93;6.07;;;;;;;4.79;75.14;99488.34;6115103;23;20001;-94
2023/11/14 00:27:06;;;;;;;9.00;5.95;;;;;;;4.94;75.70;99511.94;6141121;23;20001;-95
2023/11/14 00:29:32;;;;;;;13.45;6.22;;;;;;;4.86;75.84;99513.09;6115642;23;20001;-95
2023/11/14 00:31:58;;;;;;;8.93;5.70;;;;;;;4.57;75.26;99474.72;6140411;23;20008;-95
2023/11/14 00:34:24;;;;;;;7.93;4.75;;;;;;;4.60;75.54;99482.25;6114038;23;20475;-94
2023/11/14 00:36:52;;;;;;;8.88;5.43;;;;;;;4.58;75.85;99501.16;6139099;23;20005;-94
2023/11/14 00:39:18;;;;;;;10.00;5.57;;;;;;;4.45;75.27;99477.34;6138579;23;20001;-96
2023/11/14 00:41:46;;;;;;;9.00;4.95;;;;;;;4.60;75.55;99493.72;6113747;23;20008;-96
2023/11/14 00:44:43;;;;;;;9.75;5.38;;;;;;;4.78;75.62;99514.22;6138939;23;19997;-95
2023/11/14 00:47:12;;;;;;;9.38;4.90;;;;;;;4.62;75.37;99481.00;6158730;23;20017;-92
2023/11/14 00:49:39;;;;;;;10.18;5.75;;;;;;;4.68;75.29;99489.94;6158105;23;20009;-94
2023/11/14 00:52:05;;;;;;;12.40;5.50;;;;;;;4.56;75.36;99459.75;6134958;23;20033;-94
2023/11/14 00:54:33;;;;;;;7.78;5.70;;;;;;;4.75;75.34;99484.50;6133280;23;20009;-95
2023/11/14 01:04:20;;;;;;;10.27;6.07;;;;;;;4.94;74.66;99487.91;6160771;23;20025;-93
2023/11/14 01:06:46;;;;;;;10.70;6.57;;;;;;;4.74;74.79;99456.22;6135227;23;20050;-95
2023/11/14 01:09:11;;;;;;;12.13;6.85;;;;;;;4.68;75.39;99447.28;6112158;23;20005;-94
2023/11/14 01:11:37;;;;;;;11.75;6.40;;;;;;;4.83;75.44;99465.50;6134578;23;20021;-94
2023/11/14 01:14:03;;;;;;;11.15;6.32;;;;;;;4.68;75.14;99441.94;6133878;23;20013;-94
2023/11/14 01:16:29;;;;;;;10.82;6.20;;;;;;;4.70;75.34;99455.84;6111229;23;20008;-94
2023/11/14 01:18:54;;;;;;;9.23;5.97;;;;;;;4.70;74.96;99452.38;6135857;23;20060;-94
2023/11/14 01:21:20;;;;;;;12.32;6.60;;;;;;;4.75;74.96;99458.66;6135197;23;20385;-93
2023/11/14 01:23:46;;;;;;;15.18;6.20;;;;;;;4.54;76.05;99435.97;6110101;23;20002;-94
2023/11/14 01:26:11;;;;;;;9.05;6.22;;;;;;;4.68;75.69;99459.81;6134469;23;20005;-94
2023/11/14 01:28:38;;;;;;;11.50;6.82;;;;;;;4.72;75.19;99464.44;6113054;23;20313;-94
2023/11/14 01:31:03;;;;;;;11.35;6.35;;;;;;;4.57;75.49;99440.06;6135206;23;20006;-94
2023/11/14 01:33:31;;;;;;;12.15;6.85;;;;;;;4.65;75.75;99461.06;6110112;23;20064;-94
2023/11/14 01:35:57;;;;;;;11.45;6.40;;;;;;;4.38;75.58;99432.13;6111272;23;19997;-94
2023/11/14 01:38:23;;;;;;;12.02;7.50;;;;;;;4.37;74.98;99441.13;6110091;23;20017;-94
2023/11/14 01:40:50;;;;;;;11.95;6.75;;;;;;;4.37;74.91;99443.81;6109637;23;20008;-94
2023/11/14 01:43:16;;;;;;;11.80;6.93;;;;;;;4.24;74.75;99430.66;6135043;23;20006;-94
2023/11/14 01:45:41;;;;;;;11.95;7.57;;;;;;;4.23;75.23;99429.88;6110448;23;20041;-93
2023/11/14 01:48:16;;;;;;;16.23;7.68;;;;;;;4.04;75.32;99401.59;6135115;23;20001;-94
2023/11/14 01:50:46;;;;;;;13.63;7.57;;;;;;;4.07;74.68;99406.50;6113479;23;20437;-93
2023/11/14 01:53:12;;;;;;;12.77;7.80;;;;;;;4.23;74.84;99424.53;6110186;23;19998;-94
2023/11/14 01:55:37;;;;;;;13.70;7.70;;;;;;;4.20;74.89;99413.50;6109597;23;20113;-94
2023/11/14 01:58:03;;;;;;;14.35;7.80;;;;;;;4.18;75.31;99407.59;6136194;23;20061;-95
2023/11/14 02:00:33;;;;;;;12.43;7.22;;;;;;;4.36;75.32;99426.19;6110051;23;20008;-94
2023/11/14 02:02:59;;;;;;;25.02;8.15;;;;;;;4.26;75.34;99409.94;6134676;23;20421;-93
2023/11/14 02:05:25;;;;;;;13.50;7.13;;;;;;;4.27;75.57;99402.75;6134410;23;20047;-93
2023/11/14 02:07:50;;;;;;;9.77;7.10;;;;;;;4.29;75.25;99406.81;6134491;23;20406;-94
2023/11/14 02:10:18;;;;;;;12.43;6.95;;;;;;;4.36;75.76;99404.06;6135128;23;20099;-94
2023/11/14 02:12:44;;;;;;;10.50;5.82;;;;;;;4.34;75.59;99403.47;6109836;23;20009;-94
2023/11/14 02:15:11;;;;;;;9.35;5.45;;;;;;;4.43;74.52;99420.78;6135021;23;19992;-94
2023/11/14 02:17:36;;;;;;;14.20;5.93;;;;;;;4.43;74.90;99412.78;6135675;23;20012;-94
2023/11/14 02:20:03;;;;;;;14.43;7.03;;;;;;;4.42;74.89;99419.13;6134432;23;20495;-94
2023/11/14 02:22:28;;;;;;;17.38;6.90;;;;;;;4.34;75.13;99420.28;6110158;23;19997;-94
2023/11/14 02:24:55;;;;;;;12.10;6.78;;;;;;;4.31;75.05;99407.38;6134334;23;20013;-94
2023/11/14 02:27:22;;;;;;;10.50;6.47;;;;;;;4.35;75.04;99415.75;6134366;23;20008;-94
2023/11/14 02:29:48;;;;;;;13.82;7.15;;;;;;;4.28;74.92;99401.72;6135055;23;20024;-94
2023/11/14 02:32:13;;;;;;;12.15;6.53;;;;;;;4.20;74.50;99390.31;6133727;23;20028;-94
2023/11/14 02:34:42;;;;;;;10.80;6.50;;;;;;;4.26;75.14;99401.94;6110119;23;20076;-94
2023/11/14 02:37:08;;;;;;;13.48;6.93;;;;;;;4.28;75.21;99423.84;6110826;23;20001;-94
2023/11/14 02:39:33;;;;;;;11.25;7.32;;;;;;;4.13;75.02;99407.44;6135525;23;20016;-94
2023/11/14 02:41:59;;;;;;;12.35;7.28;;;;;;;4.12;75.09;99405.81;6109860;23;20421;-96
2023/11/14 02:44:26;;;;;;;12.13;6.70;;;;;;;4.20;74.63;99408.97;6134505;23;20036;-95
2023/11/14 02:46:53;;;;;;;11.45;6.15;;;;;;;4.37;74.92;99421.66;6110232;23;20060;-94
2023/11/14 02:49:38;;;;;;;14.05;6.72;;;;;;;4.27;74.23;99403.56;6110566;23;20005;-94
2023/11/14 02:52:04;;;;;;;12.27;6.57;;;;;;;4.27;74.29;99402.75;6134349;23;20002;-94
2023/11/14 02:54:29;;;;;;;10.27;6.80;;;;;;;4.49;74.46;99419.06;6108898;23;20008;-94
2023/11/14 02:56:55;;;;;;;11.48;6.22;;;;;;;4.40;74.74;99402.53;6133611;23;20025;-95
2023/11/14 02:59:22;;;;;;;9.32;5.75;;;;;;;4.58;74.78;99412.34;6109301;23;20005;-93
2023/11/14 03:01:47;;;;;;;11.93;5.78;;;;;;;4.51;74.30;99384.97;6134163;23;20459;-94
2023/11/14 03:04:14;;;;;;;9.43;6.00;;;;;;;4.54;74.83;99395.19;6109045;23;19997;-94
2023/11/14 03:06:40;;;;;;;11.82;6.38;;;;;;;4.53;73.90;99380.22;6109304;23;20016;-94
2023/11/14 03:09:05;;;;;;;10.02;6.00;;;;;;;4.58;73.73;99391.00;6134740;23;20001;-94
2023/11/14 03:11:31;;;;;;;10.95;6.07;;;;;;;4.68;73.87;99409.94;6134152;23;20018;-93
2023/11/14 03:13:57;;;;;;;8.90;5.55;;;;;;;4.44;74.19;99385.06;6109385;23;20006;-93
2023/11/14 03:16:22;;;;;;;12.63;5.38;;;;;;;4.58;74.12;99396.34;6133538;23;20092;-93
2023/11/14 03:18:48;;;;;;;12.10;5.93;;;;;;;4.78;74.40;99433.38;6133992;23;20055;-95
2023/11/14 03:21:15;;;;;;;11.45;6.28;;;;;;;4.57;74.22;99411.53;6109845;23;20411;-92
2023/11/14 03:23:42;;;;;;;9.73;5.88;;;;;;;4.48;74.04;99404.88;6133627;23;20425;-94
2023/11/14 03:26:09;;;;;;;10.10;5.63;;;;;;;4.41;74.21;99397.00;6134003;23;20005;-95
2023/11/14 03:28:35;;;;;;;11.63;5.70;;;;;;;4.42;74.42;99401.31;6134063;23;20088;-93
2023/11/14 03:31:00;;;;;;;11.77;6.13;;;;;;;4.52;74.07;99408.72;6133745;23;20005;-94
2023/11/14 03:33:27;;;;;;;10.98;7.18;;;;;;;4.56;74.11;99409.91;6134556;23;20001;-92
2023/11/14 03:35:52;;;;;;;9.07;5.57;;;;;;;4.48;74.09;99410.22;6133747;23;20001;-94
2023/11/14 03:38:18;;;;;;;8.73;5.05;;;;;;;4.50;74.51;99408.13;6133929;23;20396;-94
2023/11/14 03:40:43;;;;;;;9.75;5.70;;;;;;;4.61;74.48;99431.38;6133503;23;20012;-94
2023/11/14 03:43:09;;;;;;;10.68;5.30;;;;;;;4.55;74.64;99423.47;6133382;23;20004;-94
2023/11/14 03:45:34;;;;;;;9.32;5.32;;;;;;;4.49;74.41;99416.38;6133309;23;20017;-93
2023/11/14 03:48:00;;;;;;;9.57;5.70;;;;;;;4.45;73.99;99405.34;6133759;23;20001;-93
2023/11/14 03:50:29;;;;;;;7.35;4.85;;;;;;;4.60;74.11;99428.94;6109226;23;20033;-94
2023/11/14 03:52:55;;;;;;;11.45;5.13;;;;;;;4.45;74.17;99408.03;6109144;23;20008;-95
2023/11/14 03:55:20;;;;;;;8.60;4.88;;;;;;;4.40;74.92;99415.88;6133428;23;20009;-94
2023/11/14 03:57:51;;;;;;;10.20;4.88;;;;;;;4.27;73.17;99414.22;6134189;23;20017;-93
2023/11/14 04:00:19;;;;;;;9.32;5.10;;;;;;;4.44;73.79;99436.53;6109707;23;20088;-94
2023/11/14 04:02:45;;;;;;;11.95;5.50;;;;;;;4.24;74.13;99415.47;6108549;23;20009;-94
2023/11/14 04:05:10;;;;;;;8.40;4.93;;;;;;;4.25;73.90;99411.78;6134276;23;20013;-93
2023/11/14 04:07:37;;;;;;;11.43;5.55;;;;;;;4.30;73.79;99413.78;6133685;23;20005;-94
2023/11/14 04:10:07;;;;;;;9.02;5.47;;;;;;;4.23;74.70;99413.03;6110590;23;20005;-93
2023/11/14 04:12:33;;;;;;;16.95;5.82;;;;;;;4.44;74.67;99454.38;6134845;23;20001;-91
2023/11/14 04:15:02;;;;;;;9.52;5.65;;;;;;;4.21;74.04;99405.28;6134074;23;20057;-92
2023/11/14 04:17:28;;;;;;;10.95;6.07;;;;;;;4.13;74.28;99412.75;6138649;23;20007;-92
2023/11/14 04:19:56;;;;;;;10.95;5.70;;;;;;;4.04;74.54;99413.06;6109512;23;20033;-93
2023/11/14 04:22:21;;;;;;;11.30;5.68;;;;;;;4.30;74.15;99447.63;6109098;23;20009;-93
2023/11/14 04:24:47;;;;;;;9.68;6.43;;;;;;;4.15;74.56;99416.00;6133716;23;20061;-94
2023/11/14 04:27:12;;;;;;;11.57;6.47;;;;;;;4.17;74.30;99417.44;6133311;23;19998;-92
2023/11/14 04:29:38;;;;;;;16.67;6.32;;;;;;;4.13;74.49;99424.25;6109238;23;20002;-93
2023/11/14 04:32:04;;;;;;;11.18;5.80;;;;;;;4.17;74.88;99437.91;6133866;23;20012;-93
2023/11/14 04:34:33;;;;;;;9.65;6.03;;;;;;;4.00;75.20;99405.75;6136272;23;20008;-93
2023/11/14 04:36:59;;;;;;;9.68;5.78;;;;;;;4.10;75.36;99414.03;6111763;23;19998;-93
2023/11/14 04:39:25;;;;;;;11.77;6.50;;;;;;;4.08;74.63;99394.78;6110882;23;20053;-93
2023/11/14 04:41:51;;;;;;;12.27;6.25;;;;;;;4.10;74.53;99392.72;6109974;23;20006;-93
2023/11/14 04:44:18;;;;;;;14.45;7.25;;;;;;;4.08;75.21;99396.66;6136029;23;19998;-93
2023/11/14 04:46:44;;;;;;;13.65;7.32;;;;;;;3.92;74.93;99350.13;6134985;23;20348;-93
2023/11/14 04:49:10;;;;;;;16.65;8.52;;;;;;;4.06;75.42;99367.56;6110101;23;20421;-93
2023/11/14 04:51:38;;;;;;;15.65;10.68;;;;;;;4.03;75.27;99370.69;6110273;23;20023;-92
2023/11/14 04:54:04;;;;;;;17.27;7.80;;;;;;;3.81;75.56;99349.84;6112396;23;20010;-92
2023/11/14 04:56:30;;;;;;;41.58;13.90;;;;;;;3.78;76.13;99357.50;6135171;23;20448;-93
2023/11/14 04:58:56;;;;;;;19.02;9.00;;;;;;;3.89;75.73;99364.72;6110564;23;20001;-92
2023/11/14 05:01:21;;;;;;;15.27;7.65;;;;;;;3.87;76.04;99350.00;6134898;23;20037;-93
2023/11/14 05:03:47;;;;;;;14.68;6.70;;;;;;;3.84;75.41;99354.75;6111048;23;20001;-93
2023/11/14 05:06:13;;;;;;;13.23;7.90;;;;;;;4.00;75.28;99347.94;6133968;23;20396;-93
2023/11/14 05:08:38;;;;;;;16.35;8.48;;;;;;;3.95;75.23;99323.06;6134817;23;20088;-92
2023/11/14 05:11:06;;;;;;;16.45;10.88;;;;;;;3.99;75.59;99338.34;6135771;23;20009;-92
2023/11/14 05:13:32;;;;;;;15.52;8.45;;;;;;;4.12;75.35;99357.84;6109957;23;19997;-94
2023/11/14 05:16:00;;;;;;;21.85;8.30;;;;;;;3.85;75.36;99332.38;6134946;23;20001;-92
2023/11/14 05:18:26;;;;;;;16.38;8.30;;;;;;;3.81;75.73;99323.22;6133925;23;20001;-93
2023/11/14 05:20:52;;;;;;;13.77;7.07;;;;;;;3.97;75.78;99353.75;6133841;23;20005;-92
2023/11/14 05:23:17;;;;;;;18.00;9.07;;;;;;;3.91;75.08;99341.34;6109909;23;20009;-91
2023/11/14 05:25:43;;;;;;;11.13;7.13;;;;;;;3.93;75.66;99349.91;6110863;23;20001;-92
2023/11/14 05:28:09;;;;;;;11.77;6.72;;;;;;;3.98;75.26;99349.22;6110310;23;19997;-92
2023/11/14 05:30:35;;;;;;;19.75;7.05;;;;;;;4.05;75.06;99361.44;6134239;23;20005;-93
2023/11/14 05:33:01;;;;;;;13.43;6.85;;;;;;;3.95;75.18;99363.00;6110058;23;19998;-91
2023/11/14 05:35:27;;;;;;;12.18;7.63;;;;;;;4.15;74.95;99386.69;6111223;23;19996;-91
2023/11/14 05:37:53;;;;;;;15.50;8.05;;;;;;;4.23;75.11;99392.56;6109207;23;20060;-92
2023/11/14 05:40:18;;;;;;;12.52;7.50;;;;;;;4.27;75.51;99392.09;6133697;23;20088;-92
2023/11/14 05:42:44;;;;;;;15.45;6.45;;;;;;;4.18;75.92;99381.75;6109307;23;20009;-92
2023/11/14 05:45:10;;;;;;;16.05;8.63;;;;;;;4.29;75.50;99382.81;6133373;23;19997;-92
2023/11/14 05:47:36;;;;;;;10.23;5.95;;;;;;;4.51;75.26;99417.78;6114714;23;20004;-95
2023/11/14 05:50:06;;;;;;;16.02;6.82;;;;;;;4.56;74.96;99419.75;6115754;23;19997;-93
2023/11/14 05:52:38;;;;;;;18.10;8.20;;;;;;;4.49;74.91;99401.19;6140667;23;20031;-94
2023/11/14 05:55:04;;;;;;;18.05;7.45;;;;;;;4.37;74.69;99387.81;6118423;23;20410;-94
2023/11/14 05:57:30;;;;;;;16.77;9.65;;;;;;;4.58;74.92;99413.16;6115116;23;20005;-94
2023/11/14 05:59:58;;;;;;;16.67;9.40;;;;;;;4.65;74.19;99416.53;6113977;23;20023;-90
2023/11/14 06:02:24;;;;;;;20.20;8.07;;;;;;;4.55;74.54;99399.47;6114366;23;19997;-90
2023/11/14 06:04:52;;;;;;;14.07;7.60;;;;;;;4.63;74.34;99397.28;6138864;23;20008;-91
2023/11/14 06:07:17;;;;;;;19.95;8.27;;;;;;;4.78;74.45;99409.38;6113474;23;20008;-90
2023/11/14 06:09:43;;;;;;;16.48;9.13;;;;;;;4.83;75.05;99404.16;6112826;23;20001;-96
2023/11/14 06:12:12;;;;;;;12.90;7.88;;;;;;;4.98;75.02;99417.03;6114008;23;20012;-91
2023/11/14 06:14:44;;;;;;;13.85;8.05;;;;;;;4.89;74.39;99402.44;6112783;23;20036;-92
2023/11/14 06:17:10;;;;;;;21.63;8.45;;;;;;;5.11;75.13;99416.03;6136434;23;20005;-92
2023/11/14 06:19:37;;;;;;;16.48;7.82;;;;;;;5.04;73.55;99410.78;6112351;23;20068;-92
2023/11/14 06:22:05;;;;;;;22.35;11.27;;;;;;;5.28;73.94;99430.31;6112947;23;20005;-94
2023/11/14 06:24:31;;;;;;;29.45;16.98;;;;;;;5.29;73.13;99413.22;6137552;23;20404;-92
2023/11/14 06:27:00;;;;;;;15.98;8.48;;;;;;;5.42;73.48;99442.38;6113490;23;20001;-93
2023/11/14 06:29:25;;;;;;;17.67;8.43;;;;;;;5.36;73.65;99435.28;6113132;23;20036;-93
2023/11/14 06:31:51;;;;;;;19.55;9.30;;;;;;;5.29;72.86;99431.09;6111571;23;20008;-91
2023/11/14 06:34:17;;;;;;;27.85;12.20;;;;;;;5.55;71.96;99456.53;6114386;23;20001;-95
2023/11/14 06:36:44;;;;;;;112.38;67.60;;;;;;;5.56;72.01;99436.78;6112742;23;20028;-90
2023/11/14 06:39:10;;;;;;;97.88;61.65;;;;;;;5.76;71.66;99452.44;6137117;23;19997;-90
2023/11/14 06:41:35;;;;;;;27.30;16.95;;;;;;;5.76;71.23;99437.22;6136915;23;20001;-91
2023/11/14 06:44:03;;;;;;;22.75;11.45;;;;;;;5.88;70.92;99445.22;6111785;23;20031;-90
2023/11/14 06:46:29;;;;;;;21.23;11.52;;;;;;;5.91;70.80;99454.63;6112997;23;20043;-89
2023/11/14 06:48:55;;;;;;;22.98;11.57;;;;;;;6.15;70.57;99463.44;6161568;23;19997;-92
2023/11/14 06:51:21;;;;;;;21.92;13.35;;;;;;;5.97;69.92;99408.28;6136422;23;20387;-93
2023/11/14 06:53:49;;;;;;;17.73;10.70;;;;;;;6.16;70.18;99393.66;6136105;23;20008;-89
2023/11/14 06:56:19;;;;;;;24.17;12.05;;;;;;;6.44;69.40;99410.78;6163905;23;19997;-90
2023/11/14 06:58:45;;;;;;;25.10;11.75;;;;;;;6.41;68.64;99388.00;6115040;23;20003;-91
2023/11/14 07:01:14;;;;;;;21.77;12.23;;;;;;;6.83;68.42;99422.41;6138805;23;20084;-92
2023/11/14 07:04:04;;;;;;;31.65;13.60;;;;;;;6.95;67.98;99411.63;6112778;23;20008;-91
2023/11/14 07:06:38;;;;;;;29.42;12.57;;;;;;;7.04;67.41;99380.72;6130150;23;20009;-92
2023/11/14 07:09:09;;;;;;;25.00;12.23;;;;;;;7.29;66.67;99358.84;6116830;23;20367;-91
2023/11/14 07:12:02;;;;;;;25.13;12.43;;;;;;;7.56;66.86;99378.75;6117039;23;20009;-93
2023/11/14 07:14:29;;;;;;;29.70;12.55;;;;;;;7.56;65.72;99360.00;6161906;23;20067;-91
2023/11/14 07:16:55;;;;;;;40.15;12.80;;;;;;;7.79;65.39;99345.53;6136890;23;20079;-91
2023/11/14 07:19:21;;;;;;;22.42;11.85;;;;;;;8.01;65.01;99340.97;6135739;23;20028;-92
2023/11/14 07:21:47;;;;;;;23.77;11.48;;;;;;;8.41;64.63;99376.53;6160398;23;20001;-91
2023/11/14 07:24:13;;;;;;;28.60;14.10;;;;;;;8.34;64.03;99336.44;6111121;23;20001;-93
2023/11/14 07:26:39;;;;;;;24.25;13.60;;;;;;;8.64;63.52;99351.22;6159772;23;20032;-90
2023/11/14 07:29:19;;;;;;;28.67;11.98;;;;;;;8.76;63.38;99338.44;6113079;23;20079;-93
2023/11/14 07:31:48;;;;;;;21.23;12.30;;;;;;;8.94;62.46;99333.72;6139477;23;20028;-94
2023/11/14 07:34:19;;;;;;;23.88;12.18;;;;;;;9.24;62.62;99371.53;6136055;23;20066;-94
2023/11/14 07:36:47;;;;;;;48.08;21.48;;;;;;;9.26;61.99;99355.94;6160399;23;20063;-93
2023/11/14 07:39:16;;;;;;;39.45;21.38;;;;;;;9.42;61.43;99362.22;6160991;23;20023;-92
2023/11/14 07:42:05;;;;;;;28.65;13.07;;;;;;;9.54;61.02;99356.63;6163253;23;20360;-91
2023/11/14 07:44:31;;;;;;;44.20;24.67;;;;;;;9.78;60.67;99364.25;6129050;23;20025;-96
2023/11/14 07:47:24;;;;;;;72.53;35.90;;;;;;;10.08;59.49;99376.97;6140619;23;20056;-96
2023/11/14 07:49:55;;;;;;;23.20;10.02;;;;;;;9.96;58.79;99350.34;6144421;23;20016;-95
2023/11/14 07:55:10;;;;;;;33.67;11.57;;;;;;;10.29;58.14;99361.69;6139014;23;20005;-93
2023/11/14 07:57:39;;;;;;;23.40;13.77;;;;;;;10.45;58.72;99362.56;6113936;23;20092;-92
2023/11/14 08:00:10;;;;;;;36.70;13.75;;;;;;;10.62;58.41;99365.00;6112024;23;20012;-94
2023/11/14 08:03:01;;;;;;;21.35;12.02;;;;;;;10.77;58.60;99373.09;6115179;23;20011;-95
2023/11/14 08:05:42;;;;;;;;;;;;;;;;;;;;;
2023/11/14 08:08:11;;;;;;;29.27;18.55;;;;;;;11.03;57.91;99370.38;6148479;23;20020;-91
2023/11/14 08:10:38;;;;;;;105.38;51.78;;;;;;;11.11;57.81;99365.22;6118608;23;20005;-90
2023/11/14 08:13:05;;;;;;;51.92;28.15;;;;;;;11.06;57.24;99324.00;6141587;23;20007;-91
2023/11/14 08:15:50;;;;;;;22.13;14.38;;;;;;;11.34;56.00;99352.25;6136881;23;20005;-93
2023/11/14 08:18:16;;;;;;;23.30;14.48;;;;;;;11.40;54.74;99351.16;6136413;23;20009;-90
2023/11/14 08:20:41;;;;;;;34.13;21.33;;;;;;;11.36;54.02;99320.44;6114217;23;20548;-89
2023/11/14 08:23:08;;;;;;;48.00;24.27;;;;;;;11.58;53.65;99327.34;6114693;23;20444;-91
2023/11/14 08:25:44;;;;;;;13.63;5.93;;;;;;;11.77;52.83;99338.34;6166098;23;20380;-92
2023/11/14 08:28:11;;;;;;;9.07;4.80;;;;;;;11.86;52.26;99325.88;6138957;23;20031;-88
2023/11/14 08:30:36;;;;;;;10.23;6.53;;;;;;;12.03;51.75;99334.44;6161582;23;20452;-89
2023/11/14 08:33:04;;;;;;;9.85;6.60;;;;;;;12.15;51.44;99327.91;6161429;23;20013;-90
2023/11/14 08:35:33;;;;;;;11.45;6.57;;;;;;;12.40;51.32;99345.84;6138154;23;20017;-92
2023/11/14 08:38:08;;;;;;;13.32;6.50;;;;;;;12.37;51.18;99330.19;6112846;23;20072;-92
2023/11/14 08:40:34;;;;;;;9.70;4.03;;;;;;;12.39;50.62;99312.63;6139315;23;20005;-93
2023/11/14 08:43:02;;;;;;;6.43;3.00;;;;;;;12.61;50.53;99335.69;6113224;23;20038;-94
2023/11/14 08:45:29;;;;;;;8.70;3.83;;;;;;;12.50;50.54;99308.75;6113184;23;20108;-91
2023/11/14 08:48:00;;;;;;;12.27;4.55;;;;;;;12.77;50.40;99334.47;6114406;23;20364;-92
2023/11/14 08:50:37;;;;;;;16.20;6.88;;;;;;;12.71;51.45;99306.69;6140780;23;20056;-91
2023/11/14 08:53:09;;;;;;;5.95;3.50;;;;;;;13.00;51.21;99335.59;6140194;23;20647;-94
2023/11/14 08:55:45;;;;;;;6.75;3.60;;;;;;;13.15;50.30;99345.44;6142875;23;20452;-93
2023/11/14 08:59:08;;;;;;;8.27;3.70;;;;;;;13.28;50.71;99336.66;6140549;23;20008;-92
2023/11/14 09:01:34;;;;;;;15.88;6.57;;;;;;;13.31;50.63;99329.91;6167737;23;20452;-92
2023/11/14 09:04:05;;;;;;;10.98;4.07;;;;;;;13.39;49.37;99342.78;6114039;23;20043;-92
2023/11/14 09:06:36;;;;;;;7.53;4.72;;;;;;;13.41;49.77;99332.50;6116598;23;19997;-92
2023/11/14 09:09:02;;;;;;;10.20;4.85;;;;;;;13.54;50.18;99326.38;6116814;23;20076;-92
2023/11/14 09:11:42;;;;;;;;;;;;;;;;;;;;;
2023/11/14 09:14:08;;;;;;;9.32;5.68;;;;;;;13.65;50.90;99312.72;6143300;23;20072;-93
2023/11/14 09:16:43;;;;;;;11.88;5.28;;;;;;;13.71;50.72;99311.56;6135988;23;19993;-94
2023/11/14 09:19:12;;;;;;;7.85;4.53;;;;;;;13.75;50.55;99301.78;6141497;23;20005;-95
2023/11/14 09:21:41;;;;;;;7.97;5.30;;;;;;;13.97;49.94;99313.94;6140144;23;20001;-93
2023/11/14 09:24:30;;;;;;;10.50;6.03;;;;;;;14.01;50.39;99307.66;6141208;23;19993;-96
2023/11/14 09:28:03;;;;;;;;;;;;;;;;;;;;;
2023/11/14 09:31:12;;;;;;;;;;;;;;;;;;;;;
2023/11/14 09:34:14;;;;;;;12.00;6.15;;;;;;;14.41;49.48;99285.66;6176987;23;20016;-96
2023/11/14 09:36:50;;;;;;;;;;;;;;;;;;;;;
2023/11/14 09:39:19;;;;;;;8.38;4.85;;;;;;;14.33;49.29;99265.47;6148321;23;20033;-95
2023/11/14 09:42:43;;;;;;;8.15;4.63;;;;;;;14.43;49.34;99262.59;6117833;23;20015;-95
2023/11/14 09:45:18;;;;;;;13.15;5.18;;;;;;;14.73;49.45;99282.97;6169414;23;20088;-95
2023/11/14 09:47:45;;;;;;;10.47;4.20;;;;;;;14.65;49.04;99253.84;6117909;23;20029;-89
2023/11/14 09:50:14;;;;;;;9.73;5.63;;;;;;;14.87;47.37;99280.28;6114661;23;20248;-90
2023/11/14 09:52:40;;;;;;;11.13;7.93;;;;;;;15.07;46.77;99279.09;6113869;23;20000;-89
2023/11/14 09:55:12;;;;;;;8.80;5.85;;;;;;;15.03;47.11;99247.47;6116389;23;20020;-92
2023/11/14 09:57:53;;;;;;;;;;;;;;;15.30;46.83;99266.44;6129383;23;20008;-93
2023/11/14 10:00:28;;;;;;;14.90;7.93;;;;;;;15.34;46.69;99255.78;6168021;23;20014;-94
2023/11/14 10:03:09;;;;;;;15.10;9.02;;;;;;;15.36;46.26;99240.81;6140365;23;20083;-92
2023/11/14 10:05:47;;;;;;;10.80;5.53;;;;;;;15.63;45.60;99257.34;6082210;23;20009;-92
2023/11/14 10:08:15;;;;;;;10.23;4.97;;;;;;;15.61;45.20;99224.28;6084670;23;20046;-92
2023/11/14 10:14:26;;;;;;;7.32;4.57;;;;;;;16.00;44.50;99244.59;6130163;23;20124;-94
2023/11/14 10:17:05;;;;;;;10.45;4.68;;;;;;;15.89;44.35;99217.69;6127845;23;20137;-93
2023/11/14 10:20:37;;;;;;;;;;;;;;;;;;;;;
2023/11/14 10:26:47;;;;;;;7.47;3.53;;;;;;;16.14;43.31;99207.31;6118827;23;20013;-93
2023/11/14 10:29:23;;;;;;;8.38;3.35;;;;;;;16.28;41.87;99208.06;6058745;23;20492;-93
2023/11/14 10:32:35;;;;;;;;;;;;;;;;;;;;;
2023/11/14 10:35:40;;;;;;;;;;;;;;;;;;;;;
2023/11/14 10:38:36;;;;;;;;;;;;;;;;;;;;;
2023/11/14 10:41:03;;;;;;;8.20;3.45;;;;;;;16.65;39.78;99194.34;6166949;23;20111;-94
2023/11/14 10:43:34;;;;;;;2.65;1.20;;;;;;;16.66;37.88;99185.06;6138846;23;20007;-92
2023/11/14 10:46:20;;;;;;;2.45;1.10;;;;;;;16.95;37.40;99201.69;6109418;23;20443;-92
2023/11/14 10:48:46;;;;;;;4.13;1.80;;;;;;;16.95;38.17;99188.09;6133553;23;20013;-91
2023/11/14 10:51:41;;;;;;;4.15;2.03;;;;;;;17.05;38.22;99172.59;6137119;23;20034;-95
2023/11/14 10:54:20;;;;;;;;;;;;;;;;;;;;;
2023/11/14 10:56:59;;;;;;;;;;;;;;;;;;;;;
2023/11/14 10:59:55;;;;;;;3.97;2.38;;;;;;;17.12;37.19;99132.09;6145537;23;20029;-95
2023/11/14 11:02:35;;;;;;;5.18;1.80;;;;;;;17.32;37.30;99147.03;6137241;23;20005;-95
2023/11/14 11:08:39;;;;;;;;;;;;;;;;;;;;;
2023/11/14 11:11:06;;;;;;;5.82;2.70;;;;;;;17.33;37.39;99126.88;6167255;23;20036;-96
2023/11/14 11:27:05;;;;;;;3.22;2.33;;;;;;;17.60;37.49;99106.69;6167989;23;20028;-96
2023/11/14 11:29:52;;;;;;;3.03;1.48;;;;;;;17.46;36.37;99076.13;6159182;23;20001;-93
2023/11/14 11:32:54;;;;;;;7.40;3.70;;;;;;;17.56;36.99;99073.88;6109308;23;20009;-91
2023/11/14 11:35:26;;;;;;;2.97;1.92;;;;;;;17.74;36.04;99093.72;6160053;23;20017;-94
2023/11/14 11:38:18;;;;;;;4.20;1.80;;;;;;;17.68;35.71;99073.22;6158797;23;20001;-93
2023/11/14 11:41:11;;;;;;;7.88;2.38;;;;;;;17.88;35.88;99092.75;6116316;23;20018;-93
2023/11/14 11:43:47;;;;;;;8.13;4.03;;;;;;;17.65;36.29;99049.34;6129909;23;20047;-93
2023/11/14 11:46:31;;;;;;;7.93;4.55;;;;;;;17.93;35.55;99092.59;6109080;23;20056;-93
2023/11/14 11:49:26;;;;;;;;;;;;;;;;;;;;;
2023/11/14 11:52:10;;;;;;;7.22;2.25;;;;;;;17.87;36.16;99072.09;6155603;23;20349;-92
2023/11/14 11:54:41;;;;;;;7.20;2.97;;;;;;;17.87;36.18;99063.91;6108206;23;20014;-95
2023/11/14 11:57:18;;;;;;;21.08;10.82;;;;;;;17.95;35.68;99057.63;6112288;23;20006;-96
2023/11/14 11:59:50;;;;;;;10.95;5.20;;;;;;;18.10;36.28;99076.19;6135505;23;20340;-92
2023/11/14 12:02:23;;;;;;;9.63;4.80;;;;;;;17.95;36.42;99060.34;6159367;23;20013;-91
2023/11/14 12:04:51;;;;;;;4.97;2.30;;;;;;;18.01;35.69;99069.94;6158377;23;19997;-95
2023/11/14 12:07:16;;;;;;;5.68;2.50;;;;;;;18.01;35.87;99066.41;6134911;23;20039;-92
2023/11/14 12:09:51;;;;;;;5.50;2.00;;;;;;;18.07;35.52;99073.28;6131537;23;20088;-90
2023/11/14 12:12:19;;;;;;;3.58;1.88;;;;;;;17.98;35.95;99054.25;6136576;23;20013;-94
2023/11/14 12:14:47;;;;;;;6.28;1.80;;;;;;;18.04;35.83;99066.56;6107459;23;20017;-94
2023/11/14 12:17:26;;;;;;;3.72;2.47;;;;;;;18.02;36.04;99065.31;6138072;23;20328;-96
2023/11/14 12:19:54;;;;;;;4.32;1.75;;;;;;;18.11;35.37;99077.75;6112230;23;20424;-93
2023/11/14 12:22:30;;;;;;;4.97;2.58;;;;;;;18.01;34.73;99058.25;6131886;23;20044;-96
2023/11/14 12:25:08;;;;;;;6.32;4.07;;;;;;;18.23;36.23;99066.19;6149288;23;20010;-96
2023/11/14 12:27:43;;;;;;;3.17;1.92;;;;;;;18.10;35.64;99054.38;6112513;23;20152;-93
2023/11/14 12:30:12;;;;;;;8.98;3.42;;;;;;;18.06;35.34;99033.56;6135382;23;20424;-94
2023/11/14 12:32:40;;;;;;;5.15;3.67;;;;;;;18.08;35.84;99043.00;6141672;23;20001;-96
2023/11/14 12:35:12;;;;;;;4.28;2.15;;;;;;;18.00;35.39;99032.16;6110245;23;20005;-93
2023/11/14 12:44:32;;;;;;;2.38;1.30;;;;;;;18.18;35.05;99039.91;6026889;23;20020;-94
2023/11/14 12:47:13;;;;;;;3.17;1.38;;;;;;;18.47;35.91;99059.34;6024394;23;20027;-96